Main page
METAR-TAF:

METAR-TAF

Airports :

Sikeston Memorial Municipal Airport

Sikeston, Missouri, United States

latitude: 36-53-56N, longitude: 089-33-42W, elevation: 315 ft

Current weather observation

The report was made 33 minutes ago, at 11:15 UTC
Wind 5 mph from the South/Southwest
Temperature 43°F
Humidity 70%
Pressure 30.18 in. Hg
Visibility: 10 miles
Scattered clouds at a height of 6500 ft
Broken clouds at a height of 7500 ft

METAR: KSIK 231115Z AUTO 20004KT 10SM SCT065 BKN075 06/01 A3018 RMK AO2

Time: 05:48 (11:48 UTC)


TAF: missing

Weather observations and forecasts of more than 4000 airports (METAR and TAF reports).

The available stations are represented by yellow and red dots on the map.

Hover mouse over dot to see the name of the station.

Then click to see weather observations and forecasts.

To change the map : click on the green buttons with a black cross to zoom in, on the green button with a dash to zoom out, or on the green arrows for adjacent maps.


METAR-TAF: